sensor_id;sensor_type;location;lat;lon;timestamp;temperature;humidity
15700;DHT22;7950;42.744;23.174;2023-09-19T00:00:48;13.60;99.90
15700;DHT22;7950;42.744;23.174;2023-09-19T00:03:17;13.60;99.90
15700;DHT22;7950;42.744;23.174;2023-09-19T00:05:45;13.60;99.90
15700;DHT22;7950;42.744;23.174;2023-09-19T00:08:14;13.60;99.90
15700;DHT22;7950;42.744;23.174;2023-09-19T00:10:43;13.60;99.90
15700;DHT22;7950;42.744;23.174;2023-09-19T00:13:13;13.60;99.90
15700;DHT22;7950;42.744;23.174;2023-09-19T00:15:44;13.60;99.90
15700;DHT22;7950;42.744;23.174;2023-09-19T00:18:18;13.50;99.90
15700;DHT22;7950;42.744;23.174;2023-09-19T00:20:49;13.50;99.90
15700;DHT22;7950;42.744;23.174;2023-09-19T00:23:20;13.50;99.90
15700;DHT22;7950;42.744;23.174;2023-09-19T00:25:49;13.40;99.90
15700;DHT22;7950;42.744;23.174;2023-09-19T00:28:19;13.40;99.90
15700;DHT22;7950;42.744;23.174;2023-09-19T00:30:48;13.40;99.90
15700;DHT22;7950;42.744;23.174;2023-09-19T00:33:18;13.30;99.90
15700;DHT22;7950;42.744;23.174;2023-09-19T00:35:48;13.30;99.90
15700;DHT22;7950;42.744;23.174;2023-09-19T00:38:17;13.20;99.90
15700;DHT22;7950;42.744;23.174;2023-09-19T00:40:50;13.20;99.90
15700;DHT22;7950;42.744;23.174;2023-09-19T00:43:21;13.10;99.90
15700;DHT22;7950;42.744;23.174;2023-09-19T00:45:53;13.10;99.90
15700;DHT22;7950;42.744;23.174;2023-09-19T00:48:24;13.10;99.90
15700;DHT22;7950;42.744;23.174;2023-09-19T00:50:57;13.10;99.90
15700;DHT22;7950;42.744;23.174;2023-09-19T00:53:32;13.10;99.90
15700;DHT22;7950;42.744;23.174;2023-09-19T00:56:03;13.10;99.90
15700;DHT22;7950;42.744;23.174;2023-09-19T00:58:36;13.10;99.90
15700;DHT22;7950;42.744;23.174;2023-09-19T01:01:07;13.20;99.90
15700;DHT22;7950;42.744;23.174;2023-09-19T01:03:38;13.10;99.90
15700;DHT22;7950;42.744;23.174;2023-09-19T01:06:09;13.10;99.90
15700;DHT22;7950;42.744;23.174;2023-09-19T01:08:38;13.00;99.90
15700;DHT22;7950;42.744;23.174;2023-09-19T01:11:13;13.00;99.90
15700;DHT22;7950;42.744;23.174;2023-09-19T01:13:58;13.00;99.90
15700;DHT22;7950;42.744;23.174;2023-09-19T01:16:50;13.00;99.90
15700;DHT22;7950;42.744;23.174;2023-09-19T01:20:05;13.00;99.90
15700;DHT22;7950;42.744;23.174;2023-09-19T01:22:48;13.00;99.90
15700;DHT22;7950;42.744;23.174;2023-09-19T01:28:57;12.90;99.90
15700;DHT22;7950;42.744;23.174;2023-09-19T01:31:43;12.90;99.90
15700;DHT22;7950;42.744;23.174;2023-09-19T01:34:13;12.90;99.90
15700;DHT22;7950;42.744;23.174;2023-09-19T01:36:42;12.90;99.90
15700;DHT22;7950;42.744;23.174;2023-09-19T01:39:13;12.90;99.90
15700;DHT22;7950;42.744;23.174;2023-09-19T01:41:54;12.90;99.90
15700;DHT22;7950;42.744;23.174;2023-09-19T01:44:40;12.80;99.90
15700;DHT22;7950;42.744;23.174;2023-09-19T01:47:23;12.80;99.90
15700;DHT22;7950;42.744;23.174;2023-09-19T01:50:02;12.80;99.90
15700;DHT22;7950;42.744;23.174;2023-09-19T01:52:46;12.80;99.90
15700;DHT22;7950;42.744;23.174;2023-09-19T01:55:18;12.70;99.90
15700;DHT22;7950;42.744;23.174;2023-09-19T01:57:51;12.80;99.90
15700;DHT22;7950;42.744;23.174;2023-09-19T02:00:27;12.70;99.90
15700;DHT22;7950;42.744;23.174;2023-09-19T02:02:59;12.70;99.90
15700;DHT22;7950;42.744;23.174;2023-09-19T02:05:29;12.60;99.90
15700;DHT22;7950;42.744;23.174;2023-09-19T02:08:00;12.70;99.90
15700;DHT22;7950;42.744;23.174;2023-09-19T02:10:29;12.70;99.90
15700;DHT22;7950;42.744;23.174;2023-09-19T02:12:58;12.70;99.90
15700;DHT22;7950;42.744;23.174;2023-09-19T02:15:27;12.70;99.90
15700;DHT22;7950;42.744;23.174;2023-09-19T02:17:55;12.70;99.90
15700;DHT22;7950;42.744;23.174;2023-09-19T02:20:27;12.70;99.90
15700;DHT22;7950;42.744;23.174;2023-09-19T02:22:56;12.70;99.90
15700;DHT22;7950;42.744;23.174;2023-09-19T02:25:26;12.70;99.90
15700;DHT22;7950;42.744;23.174;2023-09-19T02:27:54;12.70;99.90
15700;DHT22;7950;42.744;23.174;2023-09-19T02:30:25;12.60;99.90
15700;DHT22;7950;42.744;23.174;2023-09-19T02:32:54;12.70;99.90
15700;DHT22;7950;42.744;23.174;2023-09-19T02:35:23;12.60;99.90
15700;DHT22;7950;42.744;23.174;2023-09-19T02:37:54;12.60;99.90
15700;DHT22;7950;42.744;23.174;2023-09-19T02:40:23;12.60;99.90
15700;DHT22;7950;42.744;23.174;2023-09-19T02:42:54;12.60;99.90
15700;DHT22;7950;42.744;23.174;2023-09-19T02:45:26;12.60;99.90
15700;DHT22;7950;42.744;23.174;2023-09-19T02:47:55;12.60;99.90
15700;DHT22;7950;42.744;23.174;2023-09-19T02:50:24;12.60;99.90
15700;DHT22;7950;42.744;23.174;2023-09-19T02:52:54;12.60;99.90
15700;DHT22;7950;42.744;23.174;2023-09-19T02:55:23;12.50;99.90
15700;DHT22;7950;42.744;23.174;2023-09-19T02:57:53;12.50;99.90
15700;DHT22;7950;42.744;23.174;2023-09-19T03:00:23;12.50;99.90
15700;DHT22;7950;42.744;23.174;2023-09-19T03:02:53;12.50;99.90
15700;DHT22;7950;42.744;23.174;2023-09-19T03:05:24;12.40;99.90
15700;DHT22;7950;42.744;23.174;2023-09-19T03:07:55;12.40;99.90
15700;DHT22;7950;42.744;23.174;2023-09-19T03:10:23;12.50;99.90
15700;DHT22;7950;42.744;23.174;2023-09-19T03:12:53;12.50;99.90
15700;DHT22;7950;42.744;23.174;2023-09-19T03:15:22;12.40;99.90
15700;DHT22;7950;42.744;23.174;2023-09-19T03:17:50;12.40;99.90
15700;DHT22;7950;42.744;23.174;2023-09-19T03:20:21;12.40;99.90
15700;DHT22;7950;42.744;23.174;2023-09-19T03:22:50;12.40;99.90
15700;DHT22;7950;42.744;23.174;2023-09-19T03:25:21;12.40;99.90
15700;DHT22;7950;42.744;23.174;2023-09-19T03:27:52;12.50;99.90
15700;DHT22;7950;42.744;23.174;2023-09-19T03:30:21;12.50;99.90
15700;DHT22;7950;42.744;23.174;2023-09-19T03:32:49;12.50;99.90
15700;DHT22;7950;42.744;23.174;2023-09-19T03:35:19;12.50;99.90
15700;DHT22;7950;42.744;23.174;2023-09-19T03:37:48;12.50;99.90
15700;DHT22;7950;42.744;23.174;2023-09-19T03:40:16;12.50;99.90
15700;DHT22;7950;42.744;23.174;2023-09-19T03:42:49;12.40;99.90
15700;DHT22;7950;42.744;23.174;2023-09-19T03:45:18;12.40;99.90
15700;DHT22;7950;42.744;23.174;2023-09-19T03:47:46;12.40;99.90
15700;DHT22;7950;42.744;23.174;2023-09-19T03:50:15;12.40;99.90
15700;DHT22;7950;42.744;23.174;2023-09-19T03:52:44;12.40;99.90
15700;DHT22;7950;42.744;23.174;2023-09-19T03:55:14;12.30;99.90
15700;DHT22;7950;42.744;23.174;2023-09-19T03:57:49;12.40;99.90
15700;DHT22;7950;42.744;23.174;2023-09-19T04:00:20;12.40;99.90
15700;DHT22;7950;42.744;23.174;2023-09-19T04:02:52;12.30;99.90
15700;DHT22;7950;42.744;23.174;2023-09-19T04:05:23;12.30;99.90
15700;DHT22;7950;42.744;23.174;2023-09-19T04:07:52;12.30;99.90
15700;DHT22;7950;42.744;23.174;2023-09-19T04:10:21;12.20;99.90
15700;DHT22;7950;42.744;23.174;2023-09-19T04:12:55;12.30;99.90
15700;DHT22;7950;42.744;23.174;2023-09-19T04:15:24;12.30;99.90
15700;DHT22;7950;42.744;23.174;2023-09-19T04:17:53;12.40;99.90
15700;DHT22;7950;42.744;23.174;2023-09-19T04:20:22;12.40;99.90
15700;DHT22;7950;42.744;23.174;2023-09-19T04:22:51;12.50;99.90
15700;DHT22;7950;42.744;23.174;2023-09-19T04:25:20;12.50;99.90
15700;DHT22;7950;42.744;23.174;2023-09-19T04:27:49;12.50;99.90
15700;DHT22;7950;42.744;23.174;2023-09-19T04:30:20;12.50;99.90
15700;DHT22;7950;42.744;23.174;2023-09-19T04:32:49;12.50;99.90
15700;DHT22;7950;42.744;23.174;2023-09-19T04:35:19;12.60;99.90
15700;DHT22;7950;42.744;23.174;2023-09-19T04:37:48;12.70;99.90
15700;DHT22;7950;42.744;23.174;2023-09-19T04:40:18;12.80;99.90
15700;DHT22;7950;42.744;23.174;2023-09-19T04:42:53;12.90;99.90
15700;DHT22;7950;42.744;23.174;2023-09-19T04:45:26;13.00;99.90
15700;DHT22;7950;42.744;23.174;2023-09-19T04:47:56;13.00;99.90
15700;DHT22;7950;42.744;23.174;2023-09-19T04:50:25;13.10;99.90
15700;DHT22;7950;42.744;23.174;2023-09-19T04:52:55;13.10;99.90
15700;DHT22;7950;42.744;23.174;2023-09-19T04:55:24;13.20;99.90
15700;DHT22;7950;42.744;23.174;2023-09-19T04:57:53;13.30;99.90
15700;DHT22;7950;42.744;23.174;2023-09-19T05:00:23;13.40;99.90
15700;DHT22;7950;42.744;23.174;2023-09-19T05:02:55;13.50;99.90
15700;DHT22;7950;42.744;23.174;2023-09-19T05:05:25;13.60;99.90
15700;DHT22;7950;42.744;23.174;2023-09-19T05:07:54;13.80;99.90
15700;DHT22;7950;42.744;23.174;2023-09-19T05:10:23;13.90;99.90
15700;DHT22;7950;42.744;23.174;2023-09-19T05:12:53;14.00;99.90
15700;DHT22;7950;42.744;23.174;2023-09-19T05:15:22;14.20;99.90
15700;DHT22;7950;42.744;23.174;2023-09-19T05:17:52;14.30;99.90
15700;DHT22;7950;42.744;23.174;2023-09-19T05:20:25;14.50;99.90
15700;DHT22;7950;42.744;23.174;2023-09-19T05:23:01;14.70;99.90
15700;DHT22;7950;42.744;23.174;2023-09-19T05:25:32;14.90;99.90
15700;DHT22;7950;42.744;23.174;2023-09-19T05:28:05;15.10;99.90
15700;DHT22;7950;42.744;23.174;2023-09-19T05:30:35;15.30;99.90
15700;DHT22;7950;42.744;23.174;2023-09-19T05:33:07;15.40;99.90
15700;DHT22;7950;42.744;23.174;2023-09-19T05:35:36;15.50;99.90
15700;DHT22;7950;42.744;23.174;2023-09-19T05:38:07;15.50;99.90
15700;DHT22;7950;42.744;23.174;2023-09-19T05:40:39;15.60;99.90
15700;DHT22;7950;42.744;23.174;2023-09-19T05:43:09;15.70;99.90
15700;DHT22;7950;42.744;23.174;2023-09-19T05:45:38;15.80;99.90
15700;DHT22;7950;42.744;23.174;2023-09-19T05:48:11;15.90;99.90
15700;DHT22;7950;42.744;23.174;2023-09-19T05:50:40;16.00;99.90
15700;DHT22;7950;42.744;23.174;2023-09-19T05:53:10;16.20;99.90
15700;DHT22;7950;42.744;23.174;2023-09-19T05:55:39;16.30;99.90
15700;DHT22;7950;42.744;23.174;2023-09-19T05:58:09;16.40;99.90
15700;DHT22;7950;42.744;23.174;2023-09-19T06:00:41;16.60;99.90
15700;DHT22;7950;42.744;23.174;2023-09-19T06:03:13;16.70;99.90
15700;DHT22;7950;42.744;23.174;2023-09-19T06:05:42;16.80;99.90
15700;DHT22;7950;42.744;23.174;2023-09-19T06:08:10;17.00;99.90
15700;DHT22;7950;42.744;23.174;2023-09-19T06:10:39;17.10;99.90
15700;DHT22;7950;42.744;23.174;2023-09-19T06:13:08;17.20;99.90
15700;DHT22;7950;42.744;23.174;2023-09-19T06:15:37;17.30;99.90
15700;DHT22;7950;42.744;23.174;2023-09-19T06:18:11;17.60;99.90
15700;DHT22;7950;42.744;23.174;2023-09-19T06:20:47;17.70;99.90
15700;DHT22;7950;42.744;23.174;2023-09-19T06:23:18;17.90;99.90
15700;DHT22;7950;42.744;23.174;2023-09-19T06:25:49;18.00;99.90
15700;DHT22;7950;42.744;23.174;2023-09-19T06:28:18;18.10;99.90
15700;DHT22;7950;42.744;23.174;2023-09-19T06:30:51;18.10;99.90
15700;DHT22;7950;42.744;23.174;2023-09-19T06:33:21;18.20;99.90
15700;DHT22;7950;42.744;23.174;2023-09-19T06:35:50;18.20;99.90
15700;DHT22;7950;42.744;23.174;2023-09-19T06:38:27;18.10;99.90
15700;DHT22;7950;42.744;23.174;2023-09-19T06:40:56;17.90;99.90
15700;DHT22;7950;42.744;23.174;2023-09-19T06:43:26;17.90;99.90
15700;DHT22;7950;42.744;23.174;2023-09-19T06:45:55;18.00;99.90
15700;DHT22;7950;42.744;23.174;2023-09-19T06:48:26;18.00;99.90
15700;DHT22;7950;42.744;23.174;2023-09-19T06:50:56;18.10;99.90
15700;DHT22;7950;42.744;23.174;2023-09-19T06:53:29;18.10;99.90
15700;DHT22;7950;42.744;23.174;2023-09-19T06:55:58;18.20;99.90
15700;DHT22;7950;42.744;23.174;2023-09-19T06:58:27;18.20;99.90
15700;DHT22;7950;42.744;23.174;2023-09-19T07:00:56;18.20;99.90
15700;DHT22;7950;42.744;23.174;2023-09-19T07:03:26;18.20;99.90
15700;DHT22;7950;42.744;23.174;2023-09-19T07:05:56;18.30;99.90
15700;DHT22;7950;42.744;23.174;2023-09-19T07:08:25;18.40;99.90
15700;DHT22;7950;42.744;23.174;2023-09-19T07:10:56;18.50;99.90
15700;DHT22;7950;42.744;23.174;2023-09-19T07:13:25;18.50;99.90
15700;DHT22;7950;42.744;23.174;2023-09-19T07:15:55;18.50;99.90
15700;DHT22;7950;42.744;23.174;2023-09-19T07:33:13;18.60;99.90
15700;DHT22;7950;42.744;23.174;2023-09-19T07:35:45;19.20;99.90
15700;DHT22;7950;42.744;23.174;2023-09-19T07:38:14;19.30;99.90
15700;DHT22;7950;42.744;23.174;2023-09-19T07:40:43;19.40;99.90
15700;DHT22;7950;42.744;23.174;2023-09-19T07:43:12;19.40;99.90
15700;DHT22;7950;42.744;23.174;2023-09-19T07:45:41;19.50;99.90
15700;DHT22;7950;42.744;23.174;2023-09-19T07:48:09;19.50;99.90
15700;DHT22;7950;42.744;23.174;2023-09-19T07:50:43;19.60;99.90
15700;DHT22;7950;42.744;23.174;2023-09-19T07:53:12;19.60;99.90
15700;DHT22;7950;42.744;23.174;2023-09-19T07:55:42;19.70;99.90
15700;DHT22;7950;42.744;23.174;2023-09-19T07:58:15;19.80;99.90
15700;DHT22;7950;42.744;23.174;2023-09-19T08:00:44;19.90;99.90
15700;DHT22;7950;42.744;23.174;2023-09-19T08:03:13;19.80;99.90
15700;DHT22;7950;42.744;23.174;2023-09-19T08:05:45;19.80;99.90
15700;DHT22;7950;42.744;23.174;2023-09-19T08:08:15;19.90;99.90
15700;DHT22;7950;42.744;23.174;2023-09-19T08:10:44;20.00;99.90
15700;DHT22;7950;42.744;23.174;2023-09-19T08:13:16;20.20;99.90
15700;DHT22;7950;42.744;23.174;2023-09-19T08:15:45;20.20;99.90
15700;DHT22;7950;42.744;23.174;2023-09-19T08:18:15;20.20;99.90
15700;DHT22;7950;42.744;23.174;2023-09-19T08:20:51;20.30;99.90
15700;DHT22;7950;42.744;23.174;2023-09-19T08:23:20;20.50;99.90
15700;DHT22;7950;42.744;23.174;2023-09-19T08:25:49;20.70;99.90
15700;DHT22;7950;42.744;23.174;2023-09-19T08:28:18;20.90;99.90
15700;DHT22;7950;42.744;23.174;2023-09-19T08:30:51;21.00;99.90
15700;DHT22;7950;42.744;23.174;2023-09-19T08:33:22;20.80;99.90
15700;DHT22;7950;42.744;23.174;2023-09-19T08:35:52;20.70;99.90
15700;DHT22;7950;42.744;23.174;2023-09-19T08:38:20;20.70;99.90
15700;DHT22;7950;42.744;23.174;2023-09-19T08:40:49;20.60;99.90
15700;DHT22;7950;42.744;23.174;2023-09-19T08:43:21;20.60;99.90
15700;DHT22;7950;42.744;23.174;2023-09-19T08:45:53;20.60;99.90
15700;DHT22;7950;42.744;23.174;2023-09-19T08:48:27;20.70;99.90
15700;DHT22;7950;42.744;23.174;2023-09-19T08:51:01;20.70;99.90
15700;DHT22;7950;42.744;23.174;2023-09-19T08:53:40;20.80;99.90
15700;DHT22;7950;42.744;23.174;2023-09-19T08:56:14;20.90;99.90
15700;DHT22;7950;42.744;23.174;2023-09-19T08:58:50;21.10;99.90
15700;DHT22;7950;42.744;23.174;2023-09-19T09:01:21;21.30;99.90
15700;DHT22;7950;42.744;23.174;2023-09-19T09:03:53;21.40;99.90
15700;DHT22;7950;42.744;23.174;2023-09-19T09:06:25;21.50;99.90
15700;DHT22;7950;42.744;23.174;2023-09-19T09:08:55;21.50;99.90
15700;DHT22;7950;42.744;23.174;2023-09-19T09:11:24;21.50;99.90
15700;DHT22;7950;42.744;23.174;2023-09-19T09:13:55;21.60;99.90
15700;DHT22;7950;42.744;23.174;2023-09-19T09:16:24;21.70;99.90
15700;DHT22;7950;42.744;23.174;2023-09-19T09:18:54;21.70;99.90
15700;DHT22;7950;42.744;23.174;2023-09-19T09:21:25;21.80;99.90
15700;DHT22;7950;42.744;23.174;2023-09-19T09:23:54;21.90;99.90
15700;DHT22;7950;42.744;23.174;2023-09-19T09:26:41;22.00;99.90
15700;DHT22;7950;42.744;23.174;2023-09-19T09:29:11;22.00;99.90
15700;DHT22;7950;42.744;23.174;2023-09-19T09:31:45;22.00;99.90
15700;DHT22;7950;42.744;23.174;2023-09-19T09:34:16;22.10;99.90
15700;DHT22;7950;42.744;23.174;2023-09-19T09:36:48;22.20;99.90
15700;DHT22;7950;42.744;23.174;2023-09-19T09:39:30;22.20;99.90
15700;DHT22;7950;42.744;23.174;2023-09-19T09:41:59;22.40;99.90
15700;DHT22;7950;42.744;23.174;2023-09-19T09:44:33;22.40;99.90
15700;DHT22;7950;42.744;23.174;2023-09-19T09:47:02;22.50;99.90
15700;DHT22;7950;42.744;23.174;2023-09-19T09:49:48;22.40;99.40
15700;DHT22;7950;42.744;23.174;2023-09-19T09:52:46;22.30;99.60
15700;DHT22;7950;42.744;23.174;2023-09-19T09:55:14;22.30;99.90
15700;DHT22;7950;42.744;23.174;2023-09-19T09:57:46;22.20;99.90
15700;DHT22;7950;42.744;23.174;2023-09-19T10:00:23;22.30;99.90
15700;DHT22;7950;42.744;23.174;2023-09-19T10:02:59;22.40;99.90
15700;DHT22;7950;42.744;23.174;2023-09-19T10:05:28;22.40;99.90
15700;DHT22;7950;42.744;23.174;2023-09-19T10:08:12;22.50;99.90
15700;DHT22;7950;42.744;23.174;2023-09-19T10:10:46;22.50;99.90
15700;DHT22;7950;42.744;23.174;2023-09-19T10:13:30;22.60;99.90
15700;DHT22;7950;42.744;23.174;2023-09-19T10:16:06;22.60;99.70
15700;DHT22;7950;42.744;23.174;2023-09-19T10:18:38;22.50;99.90
15700;DHT22;7950;42.744;23.174;2023-09-19T10:21:11;22.50;99.90
15700;DHT22;7950;42.744;23.174;2023-09-19T10:23:42;22.60;99.90
15700;DHT22;7950;42.744;23.174;2023-09-19T10:26:17;22.70;99.90
15700;DHT22;7950;42.744;23.174;2023-09-19T10:28:47;22.70;99.50
15700;DHT22;7950;42.744;23.174;2023-09-19T10:31:19;22.60;98.50
15700;DHT22;7950;42.744;23.174;2023-09-19T10:33:51;22.60;98.80
15700;DHT22;7950;42.744;23.174;2023-09-19T10:36:24;22.60;99.00
15700;DHT22;7950;42.744;23.174;2023-09-19T10:38:56;22.60;98.70
15700;DHT22;7950;42.744;23.174;2023-09-19T10:41:29;22.60;98.80
15700;DHT22;7950;42.744;23.174;2023-09-19T10:44:03;22.50;98.60
15700;DHT22;7950;42.744;23.174;2023-09-19T10:46:33;22.50;99.50
15700;DHT22;7950;42.744;23.174;2023-09-19T10:49:02;22.40;98.00
15700;DHT22;7950;42.744;23.174;2023-09-19T10:51:39;22.40;99.10
15700;DHT22;7950;42.744;23.174;2023-09-19T10:54:14;22.40;99.70
15700;DHT22;7950;42.744;23.174;2023-09-19T10:56:48;22.50;99.80
15700;DHT22;7950;42.744;23.174;2023-09-19T10:59:20;22.60;97.70
15700;DHT22;7950;42.744;23.174;2023-09-19T11:01:52;22.70;98.10
15700;DHT22;7950;42.744;23.174;2023-09-19T11:04:26;22.80;98.10
15700;DHT22;7950;42.744;23.174;2023-09-19T11:07:07;22.90;97.70
15700;DHT22;7950;42.744;23.174;2023-09-19T11:09:48;23.00;97.40
15700;DHT22;7950;42.744;23.174;2023-09-19T11:12:48;23.00;97.30
15700;DHT22;7950;42.744;23.174;2023-09-19T11:18:58;23.20;95.90
15700;DHT22;7950;42.744;23.174;2023-09-19T11:24:29;23.50;96.20
15700;DHT22;7950;42.744;23.174;2023-09-19T11:27:12;23.60;93.00
15700;DHT22;7950;42.744;23.174;2023-09-19T11:29:44;23.40;92.50
15700;DHT22;7950;42.744;23.174;2023-09-19T11:32:13;23.50;93.70
15700;DHT22;7950;42.744;23.174;2023-09-19T11:34:48;23.80;93.80
15700;DHT22;7950;42.744;23.174;2023-09-19T11:40:38;24.10;91.20
15700;DHT22;7950;42.744;23.174;2023-09-19T11:43:32;24.10;91.90
15700;DHT22;7950;42.744;23.174;2023-09-19T11:46:09;24.10;90.90
15700;DHT22;7950;42.744;23.174;2023-09-19T11:48:41;24.10;90.30
15700;DHT22;7950;42.744;23.174;2023-09-19T11:51:12;24.10;91.10
15700;DHT22;7950;42.744;23.174;2023-09-19T11:53:47;24.10;91.00
15700;DHT22;7950;42.744;23.174;2023-09-19T11:56:19;24.10;90.80
15700;DHT22;7950;42.744;23.174;2023-09-19T11:58:53;24.00;90.20
15700;DHT22;7950;42.744;23.174;2023-09-19T12:01:30;24.10;91.40
15700;DHT22;7950;42.744;23.174;2023-09-19T12:04:02;24.10;91.10
15700;DHT22;7950;42.744;23.174;2023-09-19T12:19:38;24.40;89.20
15700;DHT22;7950;42.744;23.174;2023-09-19T12:22:07;25.00;85.70
15700;DHT22;7950;42.744;23.174;2023-09-19T12:24:36;25.20;86.90
15700;DHT22;7950;42.744;23.174;2023-09-19T12:27:09;25.30;83.70
15700;DHT22;7950;42.744;23.174;2023-09-19T12:29:43;25.40;82.40
15700;DHT22;7950;42.744;23.174;2023-09-19T12:32:12;25.30;82.00
15700;DHT22;7950;42.744;23.174;2023-09-19T12:34:50;25.40;82.70
15700;DHT22;7950;42.744;23.174;2023-09-19T12:37:22;25.40;81.40
15700;DHT22;7950;42.744;23.174;2023-09-19T12:40:04;25.50;80.10
15700;DHT22;7950;42.744;23.174;2023-09-19T12:42:43;25.30;80.80
15700;DHT22;7950;42.744;23.174;2023-09-19T12:45:14;25.30;80.50
15700;DHT22;7950;42.744;23.174;2023-09-19T12:48:17;25.40;82.40
15700;DHT22;7950;42.744;23.174;2023-09-19T12:51:15;25.50;80.40
15700;DHT22;7950;42.744;23.174;2023-09-19T12:53:57;25.40;78.60
15700;DHT22;7950;42.744;23.174;2023-09-19T12:56:26;25.40;79.50
15700;DHT22;7950;42.744;23.174;2023-09-19T12:58:57;25.30;78.60
15700;DHT22;7950;42.744;23.174;2023-09-19T13:01:28;25.40;78.50
15700;DHT22;7950;42.744;23.174;2023-09-19T13:04:17;25.50;78.50
15700;DHT22;7950;42.744;23.174;2023-09-19T13:06:50;25.40;77.40
15700;DHT22;7950;42.744;23.174;2023-09-19T13:09:21;25.30;78.10
15700;DHT22;7950;42.744;23.174;2023-09-19T13:11:52;25.30;78.00
15700;DHT22;7950;42.744;23.174;2023-09-19T13:14:22;25.30;78.50
15700;DHT22;7950;42.744;23.174;2023-09-19T13:16:56;25.30;77.80
15700;DHT22;7950;42.744;23.174;2023-09-19T13:19:37;25.30;78.40
15700;DHT22;7950;42.744;23.174;2023-09-19T13:22:37;25.30;78.20
15700;DHT22;7950;42.744;23.174;2023-09-19T13:25:09;25.30;78.70
15700;DHT22;7950;42.744;23.174;2023-09-19T13:27:42;25.50;77.00
15700;DHT22;7950;42.744;23.174;2023-09-19T13:30:13;25.50;76.90
15700;DHT22;7950;42.744;23.174;2023-09-19T13:32:42;25.60;77.10
15700;DHT22;7950;42.744;23.174;2023-09-19T13:35:11;25.70;76.90
15700;DHT22;7950;42.744;23.174;2023-09-19T13:37:43;25.70;76.90
15700;DHT22;7950;42.744;23.174;2023-09-19T13:40:15;25.80;76.00
15700;DHT22;7950;42.744;23.174;2023-09-19T13:42:44;25.90;75.70
15700;DHT22;7950;42.744;23.174;2023-09-19T13:45:12;26.00;76.20
15700;DHT22;7950;42.744;23.174;2023-09-19T13:47:44;26.10;73.80
15700;DHT22;7950;42.744;23.174;2023-09-19T13:50:14;26.00;73.80
15700;DHT22;7950;42.744;23.174;2023-09-19T13:52:45;25.90;73.60
15700;DHT22;7950;42.744;23.174;2023-09-19T13:55:15;25.90;74.20
15700;DHT22;7950;42.744;23.174;2023-09-19T13:57:47;25.90;73.40
15700;DHT22;7950;42.744;23.174;2023-09-19T14:00:19;26.00;73.90
15700;DHT22;7950;42.744;23.174;2023-09-19T14:02:49;26.00;74.60
15700;DHT22;7950;42.744;23.174;2023-09-19T14:05:19;26.10;75.70
15700;DHT22;7950;42.744;23.174;2023-09-19T14:07:50;26.10;74.00
15700;DHT22;7950;42.744;23.174;2023-09-19T14:10:19;26.20;73.20
15700;DHT22;7950;42.744;23.174;2023-09-19T14:12:48;26.20;72.00
15700;DHT22;7950;42.744;23.174;2023-09-19T14:15:17;26.10;72.80
15700;DHT22;7950;42.744;23.174;2023-09-19T14:17:46;26.10;73.00
15700;DHT22;7950;42.744;23.174;2023-09-19T14:20:14;26.00;72.10
15700;DHT22;7950;42.744;23.174;2023-09-19T14:22:43;26.00;72.40
15700;DHT22;7950;42.744;23.174;2023-09-19T14:25:13;25.90;73.20
15700;DHT22;7950;42.744;23.174;2023-09-19T14:27:42;25.80;72.70
15700;DHT22;7950;42.744;23.174;2023-09-19T14:30:11;25.80;74.70
15700;DHT22;7950;42.744;23.174;2023-09-19T14:32:41;25.80;74.40
15700;DHT22;7950;42.744;23.174;2023-09-19T14:35:09;25.70;72.90
15700;DHT22;7950;42.744;23.174;2023-09-19T14:37:42;25.50;73.70
15700;DHT22;7950;42.744;23.174;2023-09-19T14:40:14;25.40;74.70
15700;DHT22;7950;42.744;23.174;2023-09-19T14:42:44;25.40;75.20
15700;DHT22;7950;42.744;23.174;2023-09-19T14:45:15;25.30;74.90
15700;DHT22;7950;42.744;23.174;2023-09-19T14:47:46;25.20;75.40
15700;DHT22;7950;42.744;23.174;2023-09-19T14:50:15;25.20;76.30
15700;DHT22;7950;42.744;23.174;2023-09-19T14:52:44;25.10;77.30
15700;DHT22;7950;42.744;23.174;2023-09-19T14:55:14;25.10;76.30
15700;DHT22;7950;42.744;23.174;2023-09-19T14:57:43;25.10;77.80
15700;DHT22;7950;42.744;23.174;2023-09-19T15:00:13;25.00;79.10
15700;DHT22;7950;42.744;23.174;2023-09-19T15:02:43;25.00;78.30
15700;DHT22;7950;42.744;23.174;2023-09-19T15:05:16;24.90;77.80
15700;DHT22;7950;42.744;23.174;2023-09-19T15:07:46;24.90;78.40
15700;DHT22;7950;42.744;23.174;2023-09-19T15:10:17;24.80;78.40
15700;DHT22;7950;42.744;23.174;2023-09-19T15:12:46;24.80;80.50
15700;DHT22;7950;42.744;23.174;2023-09-19T15:15:15;24.80;81.20
15700;DHT22;7950;42.744;23.174;2023-09-19T15:17:44;24.80;80.00
15700;DHT22;7950;42.744;23.174;2023-09-19T15:20:14;24.70;80.80
15700;DHT22;7950;42.744;23.174;2023-09-19T15:22:45;24.70;80.60
15700;DHT22;7950;42.744;23.174;2023-09-19T15:25:15;24.60;81.60
15700;DHT22;7950;42.744;23.174;2023-09-19T15:27:44;24.50;83.60
15700;DHT22;7950;42.744;23.174;2023-09-19T15:30:13;24.50;84.80
15700;DHT22;7950;42.744;23.174;2023-09-19T15:32:42;24.40;87.00
15700;DHT22;7950;42.744;23.174;2023-09-19T15:35:11;24.30;87.40
15700;DHT22;7950;42.744;23.174;2023-09-19T15:37:41;24.30;88.90
15700;DHT22;7950;42.744;23.174;2023-09-19T15:40:10;24.20;91.00
15700;DHT22;7950;42.744;23.174;2023-09-19T15:42:42;24.10;93.70
15700;DHT22;7950;42.744;23.174;2023-09-19T15:45:10;24.10;95.80
15700;DHT22;7950;42.744;23.174;2023-09-19T15:47:39;24.00;96.10
15700;DHT22;7950;42.744;23.174;2023-09-19T15:50:10;23.90;97.50
15700;DHT22;7950;42.744;23.174;2023-09-19T15:52:40;23.80;98.20
15700;DHT22;7950;42.744;23.174;2023-09-19T15:55:10;23.80;99.90
15700;DHT22;7950;42.744;23.174;2023-09-19T15:57:39;23.70;99.90
15700;DHT22;7950;42.744;23.174;2023-09-19T16:00:10;23.60;99.90
15700;DHT22;7950;42.744;23.174;2023-09-19T16:02:45;23.50;99.90
15700;DHT22;7950;42.744;23.174;2023-09-19T16:05:17;23.40;99.90
15700;DHT22;7950;42.744;23.174;2023-09-19T16:07:46;23.20;99.90
15700;DHT22;7950;42.744;23.174;2023-09-19T16:10:15;23.10;99.90
15700;DHT22;7950;42.744;23.174;2023-09-19T16:12:44;23.00;99.90
15700;DHT22;7950;42.744;23.174;2023-09-19T16:15:14;22.90;99.90
15700;DHT22;7950;42.744;23.174;2023-09-19T16:17:46;22.80;99.90
15700;DHT22;7950;42.744;23.174;2023-09-19T16:20:15;22.60;99.90
15700;DHT22;7950;42.744;23.174;2023-09-19T16:22:45;22.50;99.90
15700;DHT22;7950;42.744;23.174;2023-09-19T16:25:14;22.40;99.90
15700;DHT22;7950;42.744;23.174;2023-09-19T16:27:44;22.30;99.90
15700;DHT22;7950;42.744;23.174;2023-09-19T16:30:14;22.10;99.90
15700;DHT22;7950;42.744;23.174;2023-09-19T16:32:45;22.00;99.90
15700;DHT22;7950;42.744;23.174;2023-09-19T16:35:14;21.80;99.90
15700;DHT22;7950;42.744;23.174;2023-09-19T16:37:44;21.70;99.90
15700;DHT22;7950;42.744;23.174;2023-09-19T16:40:14;21.60;99.90